Pagrindinis puslapis
METAR-TAF:

METAR-TAF

Oro uostai :

Retalhuleu, Gvatemala

platuma: 14-32N, ilguma: 091-40W, Aukštis: 239 m

Dabartinis oras

Ataskaita buvo paskelbta 3 valandos ir 47 minutes, ne 00:00 UTC
Vėjas 10 kt iš Šiaurės Rytų
Temperatūra 25°C
Drėgmė 94%
Slėgis 1014 hPa
Matomumas: 8000 m
Mažai debesys ne aukštis 2000 ft
Mažai debesys ne aukštis 3000 ft, Liūtiniai kamuoliniai debesys.
Apsiniaukę ne aukštis 8000 ft
perkūnija, lietus,

METAR: MGRT 250000Z 05010KT 8000 -TSRA FEW020 FEW030CB OVC080 25/24 Q1014 A2994 CB/TS/LTNG/N VOL. STA MARIA Y SANTIAGUITO EN ACTIVIDAD

Laikas: 21:47 (03:47 UTC)


TAF: trūkstamas

Orai ataskaitas ir orų prognozės (METAR, TAF).

turimą stotys yra geltonos ir raudonos taškus žemėlapyje.

Perkelti pele per norėdami pamatyti stoties vardą.

Tada spustelėkite, norėdami matyti oro stebėjimo ir prognozės.

Norėdami pakeisti žemėlapį: spustelėkite ant žalios mygtukų su juodo kryžiaus žemyn,; žalią mygtuką su brūkšneliu, jei norite nutolinti; arba žalių rodyklių gretimoms žemėlapius.


METAR-TAF: